sensor_id;sensor_type;location;lat;lon;timestamp;temperature;humidity
12384;DHT22;6256;63.808;20.336;2023-07-22T00:00:50;13.30;99.90
12384;DHT22;6256;63.808;20.336;2023-07-22T00:03:15;13.30;99.90
12384;DHT22;6256;63.808;20.336;2023-07-22T00:05:42;13.30;99.90
12384;DHT22;6256;63.808;20.336;2023-07-22T00:08:07;13.10;99.90
12384;DHT22;6256;63.808;20.336;2023-07-22T00:10:33;13.10;99.90
12384;DHT22;6256;63.808;20.336;2023-07-22T00:12:59;13.10;99.90
12384;DHT22;6256;63.808;20.336;2023-07-22T00:15:24;13.00;99.90
12384;DHT22;6256;63.808;20.336;2023-07-22T00:17:50;13.00;99.90
12384;DHT22;6256;63.808;20.336;2023-07-22T00:20:16;13.00;99.90
12384;DHT22;6256;63.808;20.336;2023-07-22T00:22:42;12.90;99.90
12384;DHT22;6256;63.808;20.336;2023-07-22T00:25:11;12.90;99.90
12384;DHT22;6256;63.808;20.336;2023-07-22T00:27:39;12.90;99.90
12384;DHT22;6256;63.808;20.336;2023-07-22T00:30:08;12.90;99.90
12384;DHT22;6256;63.808;20.336;2023-07-22T00:32:35;12.90;99.90
12384;DHT22;6256;63.808;20.336;2023-07-22T00:35:04;12.90;99.90
12384;DHT22;6256;63.808;20.336;2023-07-22T00:37:31;12.90;99.90
12384;DHT22;6256;63.808;20.336;2023-07-22T00:39:56;12.90;99.90
12384;DHT22;6256;63.808;20.336;2023-07-22T00:42:22;12.90;99.90
12384;DHT22;6256;63.808;20.336;2023-07-22T00:44:48;12.90;99.90
12384;DHT22;6256;63.808;20.336;2023-07-22T00:47:14;12.90;99.90
12384;DHT22;6256;63.808;20.336;2023-07-22T00:49:40;12.90;99.90
12384;DHT22;6256;63.808;20.336;2023-07-22T00:52:06;13.00;99.90
12384;DHT22;6256;63.808;20.336;2023-07-22T00:54:32;13.00;99.90
12384;DHT22;6256;63.808;20.336;2023-07-22T00:56:58;13.00;99.90
12384;DHT22;6256;63.808;20.336;2023-07-22T00:59:24;13.00;99.90
12384;DHT22;6256;63.808;20.336;2023-07-22T01:01:50;13.00;99.90
12384;DHT22;6256;63.808;20.336;2023-07-22T01:04:19;13.10;99.90
12384;DHT22;6256;63.808;20.336;2023-07-22T01:06:45;13.10;99.90
12384;DHT22;6256;63.808;20.336;2023-07-22T01:09:12;13.10;99.90
12384;DHT22;6256;63.808;20.336;2023-07-22T01:11:39;13.00;99.90
12384;DHT22;6256;63.808;20.336;2023-07-22T01:14:04;13.00;99.90
12384;DHT22;6256;63.808;20.336;2023-07-22T01:16:30;13.00;99.90
12384;DHT22;6256;63.808;20.336;2023-07-22T01:18:57;12.90;99.90
12384;DHT22;6256;63.808;20.336;2023-07-22T01:21:23;12.90;99.90
12384;DHT22;6256;63.808;20.336;2023-07-22T01:23:49;12.90;99.90
12384;DHT22;6256;63.808;20.336;2023-07-22T01:26:16;12.80;99.90
12384;DHT22;6256;63.808;20.336;2023-07-22T01:28:43;12.80;99.90
12384;DHT22;6256;63.808;20.336;2023-07-22T01:31:09;12.80;99.90
12384;DHT22;6256;63.808;20.336;2023-07-22T01:33:35;12.80;99.90
12384;DHT22;6256;63.808;20.336;2023-07-22T01:36:01;12.70;99.90
12384;DHT22;6256;63.808;20.336;2023-07-22T01:38:27;12.80;99.90
12384;DHT22;6256;63.808;20.336;2023-07-22T01:40:55;12.70;99.90
12384;DHT22;6256;63.808;20.336;2023-07-22T01:43:21;12.70;99.90
12384;DHT22;6256;63.808;20.336;2023-07-22T01:45:47;12.80;99.90
12384;DHT22;6256;63.808;20.336;2023-07-22T01:48:13;12.80;99.90
12384;DHT22;6256;63.808;20.336;2023-07-22T01:50:38;12.90;99.90
12384;DHT22;6256;63.808;20.336;2023-07-22T01:53:04;12.90;99.90
12384;DHT22;6256;63.808;20.336;2023-07-22T01:55:31;12.90;99.90
12384;DHT22;6256;63.808;20.336;2023-07-22T01:57:58;13.00;99.90
12384;DHT22;6256;63.808;20.336;2023-07-22T02:00:27;13.00;99.90
12384;DHT22;6256;63.808;20.336;2023-07-22T02:02:53;13.00;99.90
12384;DHT22;6256;63.808;20.336;2023-07-22T02:05:19;13.10;99.90
12384;DHT22;6256;63.808;20.336;2023-07-22T02:07:46;13.10;99.90
12384;DHT22;6256;63.808;20.336;2023-07-22T02:10:12;13.10;99.90
12384;DHT22;6256;63.808;20.336;2023-07-22T02:12:37;13.20;99.90
12384;DHT22;6256;63.808;20.336;2023-07-22T02:15:03;13.20;99.90
12384;DHT22;6256;63.808;20.336;2023-07-22T02:17:29;13.20;99.90
12384;DHT22;6256;63.808;20.336;2023-07-22T02:19:56;13.30;99.90
12384;DHT22;6256;63.808;20.336;2023-07-22T02:22:22;13.30;99.90
12384;DHT22;6256;63.808;20.336;2023-07-22T02:24:47;13.40;99.90
12384;DHT22;6256;63.808;20.336;2023-07-22T02:27:13;13.40;99.90
12384;DHT22;6256;63.808;20.336;2023-07-22T02:29:40;13.40;99.90
12384;DHT22;6256;63.808;20.336;2023-07-22T02:32:05;13.40;99.90
12384;DHT22;6256;63.808;20.336;2023-07-22T02:34:31;13.40;99.90
12384;DHT22;6256;63.808;20.336;2023-07-22T02:36:57;13.50;99.90
12384;DHT22;6256;63.808;20.336;2023-07-22T02:39:23;13.50;99.90
12384;DHT22;6256;63.808;20.336;2023-07-22T02:41:49;13.50;99.90
12384;DHT22;6256;63.808;20.336;2023-07-22T02:44:14;13.60;99.90
12384;DHT22;6256;63.808;20.336;2023-07-22T02:46:40;13.60;99.90
12384;DHT22;6256;63.808;20.336;2023-07-22T02:49:06;13.60;99.90
12384;DHT22;6256;63.808;20.336;2023-07-22T02:51:32;13.70;99.90
12384;DHT22;6256;63.808;20.336;2023-07-22T02:53:58;13.80;99.90
12384;DHT22;6256;63.808;20.336;2023-07-22T02:56:24;13.80;99.90
12384;DHT22;6256;63.808;20.336;2023-07-22T02:58:50;13.80;99.90
12384;DHT22;6256;63.808;20.336;2023-07-22T03:01:16;13.80;99.90
12384;DHT22;6256;63.808;20.336;2023-07-22T03:03:41;13.80;99.90
12384;DHT22;6256;63.808;20.336;2023-07-22T03:06:07;13.90;99.90
12384;DHT22;6256;63.808;20.336;2023-07-22T03:08:35;13.90;99.90
12384;DHT22;6256;63.808;20.336;2023-07-22T03:11:01;13.90;99.90
12384;DHT22;6256;63.808;20.336;2023-07-22T03:13:26;13.90;99.90
12384;DHT22;6256;63.808;20.336;2023-07-22T03:15:55;14.00;99.90
12384;DHT22;6256;63.808;20.336;2023-07-22T03:18:21;14.00;99.90
12384;DHT22;6256;63.808;20.336;2023-07-22T03:20:47;14.10;99.90
12384;DHT22;6256;63.808;20.336;2023-07-22T03:23:13;14.20;99.90
12384;DHT22;6256;63.808;20.336;2023-07-22T03:25:39;14.30;99.90
12384;DHT22;6256;63.808;20.336;2023-07-22T03:28:05;14.30;99.90
12384;DHT22;6256;63.808;20.336;2023-07-22T03:30:32;14.40;99.90
12384;DHT22;6256;63.808;20.336;2023-07-22T03:33:01;14.50;99.90
12384;DHT22;6256;63.808;20.336;2023-07-22T03:35:27;14.50;99.90
12384;DHT22;6256;63.808;20.336;2023-07-22T03:37:53;14.60;99.90
12384;DHT22;6256;63.808;20.336;2023-07-22T03:40:19;14.70;99.90
12384;DHT22;6256;63.808;20.336;2023-07-22T03:42:51;14.80;99.90
12384;DHT22;6256;63.808;20.336;2023-07-22T03:45:18;14.90;99.90
12384;DHT22;6256;63.808;20.336;2023-07-22T03:47:45;15.00;99.90
12384;DHT22;6256;63.808;20.336;2023-07-22T03:50:11;15.10;99.90
12384;DHT22;6256;63.808;20.336;2023-07-22T03:52:37;15.10;99.90
12384;DHT22;6256;63.808;20.336;2023-07-22T03:55:04;15.20;99.90
12384;DHT22;6256;63.808;20.336;2023-07-22T03:57:31;15.10;99.90
12384;DHT22;6256;63.808;20.336;2023-07-22T03:59:57;15.20;99.90
12384;DHT22;6256;63.808;20.336;2023-07-22T04:02:23;15.20;99.90
12384;DHT22;6256;63.808;20.336;2023-07-22T04:04:51;15.20;99.90
12384;DHT22;6256;63.808;20.336;2023-07-22T04:07:17;15.30;99.90
12384;DHT22;6256;63.808;20.336;2023-07-22T04:09:43;15.30;99.90
12384;DHT22;6256;63.808;20.336;2023-07-22T04:12:10;15.30;99.90
12384;DHT22;6256;63.808;20.336;2023-07-22T04:14:37;15.40;99.90
12384;DHT22;6256;63.808;20.336;2023-07-22T04:17:03;15.40;99.90
12384;DHT22;6256;63.808;20.336;2023-07-22T04:19:30;15.50;99.90
12384;DHT22;6256;63.808;20.336;2023-07-22T04:21:56;15.50;99.90
12384;DHT22;6256;63.808;20.336;2023-07-22T04:24:21;15.70;99.90
12384;DHT22;6256;63.808;20.336;2023-07-22T04:26:47;15.80;99.90
12384;DHT22;6256;63.808;20.336;2023-07-22T04:29:13;15.80;99.90
12384;DHT22;6256;63.808;20.336;2023-07-22T04:31:39;15.90;99.90
12384;DHT22;6256;63.808;20.336;2023-07-22T04:34:05;16.00;99.90
12384;DHT22;6256;63.808;20.336;2023-07-22T04:36:31;16.00;99.90
12384;DHT22;6256;63.808;20.336;2023-07-22T04:38:57;16.10;99.90
12384;DHT22;6256;63.808;20.336;2023-07-22T04:41:23;16.10;99.90
12384;DHT22;6256;63.808;20.336;2023-07-22T04:43:49;16.20;99.90
12384;DHT22;6256;63.808;20.336;2023-07-22T04:46:16;16.10;99.90
12384;DHT22;6256;63.808;20.336;2023-07-22T04:48:42;16.10;99.90
12384;DHT22;6256;63.808;20.336;2023-07-22T04:51:08;16.20;99.90
12384;DHT22;6256;63.808;20.336;2023-07-22T04:53:33;16.20;99.90
12384;DHT22;6256;63.808;20.336;2023-07-22T04:55:59;16.20;99.90
12384;DHT22;6256;63.808;20.336;2023-07-22T04:58:25;16.20;99.90
12384;DHT22;6256;63.808;20.336;2023-07-22T05:00:51;16.30;99.90
12384;DHT22;6256;63.808;20.336;2023-07-22T05:03:17;16.40;99.90
12384;DHT22;6256;63.808;20.336;2023-07-22T05:05:44;16.30;99.90
12384;DHT22;6256;63.808;20.336;2023-07-22T05:08:10;16.40;99.90
12384;DHT22;6256;63.808;20.336;2023-07-22T05:10:37;16.40;99.90
12384;DHT22;6256;63.808;20.336;2023-07-22T05:13:03;16.50;99.90
12384;DHT22;6256;63.808;20.336;2023-07-22T05:15:29;16.50;99.90
12384;DHT22;6256;63.808;20.336;2023-07-22T05:17:55;16.50;99.90
12384;DHT22;6256;63.808;20.336;2023-07-22T05:20:20;16.60;99.90
12384;DHT22;6256;63.808;20.336;2023-07-22T05:22:46;16.70;99.90
12384;DHT22;6256;63.808;20.336;2023-07-22T05:25:12;16.80;99.90
12384;DHT22;6256;63.808;20.336;2023-07-22T05:27:39;17.00;99.90
12384;DHT22;6256;63.808;20.336;2023-07-22T05:30:05;17.00;99.90
12384;DHT22;6256;63.808;20.336;2023-07-22T05:32:31;17.10;99.90
12384;DHT22;6256;63.808;20.336;2023-07-22T05:34:57;17.30;99.90
12384;DHT22;6256;63.808;20.336;2023-07-22T05:37:23;17.30;99.90
12384;DHT22;6256;63.808;20.336;2023-07-22T05:39:50;17.30;99.90
12384;DHT22;6256;63.808;20.336;2023-07-22T05:42:16;17.40;99.90
12384;DHT22;6256;63.808;20.336;2023-07-22T05:44:42;17.60;99.90
12384;DHT22;6256;63.808;20.336;2023-07-22T05:47:08;17.70;99.90
12384;DHT22;6256;63.808;20.336;2023-07-22T05:49:33;17.80;99.90
12384;DHT22;6256;63.808;20.336;2023-07-22T05:51:59;18.00;99.90
12384;DHT22;6256;63.808;20.336;2023-07-22T05:54:25;18.00;99.90
12384;DHT22;6256;63.808;20.336;2023-07-22T05:56:50;18.10;99.90
12384;DHT22;6256;63.808;20.336;2023-07-22T05:59:17;18.20;99.90
12384;DHT22;6256;63.808;20.336;2023-07-22T06:01:43;18.30;99.90
12384;DHT22;6256;63.808;20.336;2023-07-22T06:04:09;18.40;99.90
12384;DHT22;6256;63.808;20.336;2023-07-22T06:06:35;18.50;99.90
12384;DHT22;6256;63.808;20.336;2023-07-22T06:09:01;18.50;99.90
12384;DHT22;6256;63.808;20.336;2023-07-22T06:11:27;18.60;99.90
12384;DHT22;6256;63.808;20.336;2023-07-22T06:13:54;18.80;99.90
12384;DHT22;6256;63.808;20.336;2023-07-22T06:16:19;18.90;99.90
12384;DHT22;6256;63.808;20.336;2023-07-22T06:18:45;19.00;99.90
12384;DHT22;6256;63.808;20.336;2023-07-22T06:21:11;19.20;99.90
12384;DHT22;6256;63.808;20.336;2023-07-22T06:23:37;19.30;99.90
12384;DHT22;6256;63.808;20.336;2023-07-22T06:26:02;19.30;99.90
12384;DHT22;6256;63.808;20.336;2023-07-22T06:28:28;19.50;99.90
12384;DHT22;6256;63.808;20.336;2023-07-22T06:30:54;19.50;99.90
12384;DHT22;6256;63.808;20.336;2023-07-22T06:33:20;19.70;99.90
12384;DHT22;6256;63.808;20.336;2023-07-22T06:35:46;19.80;99.90
12384;DHT22;6256;63.808;20.336;2023-07-22T06:38:11;19.80;99.90
12384;DHT22;6256;63.808;20.336;2023-07-22T06:40:37;19.70;99.90
12384;DHT22;6256;63.808;20.336;2023-07-22T06:43:03;19.70;99.90
12384;DHT22;6256;63.808;20.336;2023-07-22T06:45:28;19.70;99.90
12384;DHT22;6256;63.808;20.336;2023-07-22T06:47:54;19.80;99.90
12384;DHT22;6256;63.808;20.336;2023-07-22T06:50:20;19.90;99.90
12384;DHT22;6256;63.808;20.336;2023-07-22T06:52:45;20.00;99.90
12384;DHT22;6256;63.808;20.336;2023-07-22T06:55:11;19.90;99.90
12384;DHT22;6256;63.808;20.336;2023-07-22T06:57:37;20.00;99.90
12384;DHT22;6256;63.808;20.336;2023-07-22T07:00:04;20.20;99.90
12384;DHT22;6256;63.808;20.336;2023-07-22T07:02:30;20.20;99.90
12384;DHT22;6256;63.808;20.336;2023-07-22T07:04:56;20.10;99.90
12384;DHT22;6256;63.808;20.336;2023-07-22T07:07:22;20.20;99.90
12384;DHT22;6256;63.808;20.336;2023-07-22T07:09:47;20.20;99.90
12384;DHT22;6256;63.808;20.336;2023-07-22T07:12:13;20.20;99.90
12384;DHT22;6256;63.808;20.336;2023-07-22T07:14:39;20.30;99.90
12384;DHT22;6256;63.808;20.336;2023-07-22T07:17:05;20.20;99.90
12384;DHT22;6256;63.808;20.336;2023-07-22T07:19:30;20.30;99.90
12384;DHT22;6256;63.808;20.336;2023-07-22T07:21:56;20.30;99.90
12384;DHT22;6256;63.808;20.336;2023-07-22T07:24:22;20.40;99.90
12384;DHT22;6256;63.808;20.336;2023-07-22T07:26:47;20.30;99.90
12384;DHT22;6256;63.808;20.336;2023-07-22T07:29:13;20.10;99.90
12384;DHT22;6256;63.808;20.336;2023-07-22T07:31:39;19.90;99.90
12384;DHT22;6256;63.808;20.336;2023-07-22T07:34:05;19.70;99.90
12384;DHT22;6256;63.808;20.336;2023-07-22T07:36:32;19.90;99.90
12384;DHT22;6256;63.808;20.336;2023-07-22T07:39:01;20.10;99.90
12384;DHT22;6256;63.808;20.336;2023-07-22T07:41:28;20.20;99.90
12384;DHT22;6256;63.808;20.336;2023-07-22T07:43:54;20.40;99.90
12384;DHT22;6256;63.808;20.336;2023-07-22T07:46:24;20.50;99.90
12384;DHT22;6256;63.808;20.336;2023-07-22T07:48:51;20.70;99.90
12384;DHT22;6256;63.808;20.336;2023-07-22T07:51:18;20.80;99.90
12384;DHT22;6256;63.808;20.336;2023-07-22T07:53:45;20.70;99.90
12384;DHT22;6256;63.808;20.336;2023-07-22T07:56:12;20.70;99.90
12384;DHT22;6256;63.808;20.336;2023-07-22T07:58:38;20.60;99.90
12384;DHT22;6256;63.808;20.336;2023-07-22T08:01:05;20.40;99.90
12384;DHT22;6256;63.808;20.336;2023-07-22T08:03:31;20.20;99.90
12384;DHT22;6256;63.808;20.336;2023-07-22T08:05:57;20.10;99.90
12384;DHT22;6256;63.808;20.336;2023-07-22T08:08:23;20.00;99.90
12384;DHT22;6256;63.808;20.336;2023-07-22T08:11:03;19.50;99.90
12384;DHT22;6256;63.808;20.336;2023-07-22T08:13:30;19.40;99.90
12384;DHT22;6256;63.808;20.336;2023-07-22T08:16:04;19.20;99.90
12384;DHT22;6256;63.808;20.336;2023-07-22T08:18:33;19.00;99.90
12384;DHT22;6256;63.808;20.336;2023-07-22T08:21:00;19.20;99.90
12384;DHT22;6256;63.808;20.336;2023-07-22T08:23:26;19.30;99.90
12384;DHT22;6256;63.808;20.336;2023-07-22T08:25:51;19.40;99.90
12384;DHT22;6256;63.808;20.336;2023-07-22T08:28:17;19.50;99.90
12384;DHT22;6256;63.808;20.336;2023-07-22T08:30:43;19.60;99.90
12384;DHT22;6256;63.808;20.336;2023-07-22T08:33:11;19.60;99.90
12384;DHT22;6256;63.808;20.336;2023-07-22T08:35:38;19.60;99.90
12384;DHT22;6256;63.808;20.336;2023-07-22T08:38:04;19.50;99.90
12384;DHT22;6256;63.808;20.336;2023-07-22T08:40:34;19.50;99.90
12384;DHT22;6256;63.808;20.336;2023-07-22T08:43:02;19.50;99.90
12384;DHT22;6256;63.808;20.336;2023-07-22T08:45:29;19.70;99.90
12384;DHT22;6256;63.808;20.336;2023-07-22T08:47:58;19.80;99.90
12384;DHT22;6256;63.808;20.336;2023-07-22T08:50:30;20.00;99.90
12384;DHT22;6256;63.808;20.336;2023-07-22T08:52:57;20.20;99.90
12384;DHT22;6256;63.808;20.336;2023-07-22T08:55:23;20.30;99.90
12384;DHT22;6256;63.808;20.336;2023-07-22T08:57:50;20.40;99.90
12384;DHT22;6256;63.808;20.336;2023-07-22T09:00:16;20.30;99.90
12384;DHT22;6256;63.808;20.336;2023-07-22T09:02:42;20.20;99.90
12384;DHT22;6256;63.808;20.336;2023-07-22T09:05:09;20.10;99.90
12384;DHT22;6256;63.808;20.336;2023-07-22T09:07:36;20.10;99.90
12384;DHT22;6256;63.808;20.336;2023-07-22T09:10:04;19.90;99.90
12384;DHT22;6256;63.808;20.336;2023-07-22T09:12:30;19.70;99.90
12384;DHT22;6256;63.808;20.336;2023-07-22T09:14:57;19.70;99.90
12384;DHT22;6256;63.808;20.336;2023-07-22T09:17:24;19.70;99.90
12384;DHT22;6256;63.808;20.336;2023-07-22T09:19:53;19.80;99.90
12384;DHT22;6256;63.808;20.336;2023-07-22T09:22:27;19.90;99.90
12384;DHT22;6256;63.808;20.336;2023-07-22T09:24:53;19.90;99.90
12384;DHT22;6256;63.808;20.336;2023-07-22T09:27:33;20.00;99.90
12384;DHT22;6256;63.808;20.336;2023-07-22T09:29:59;20.10;99.90
12384;DHT22;6256;63.808;20.336;2023-07-22T09:32:37;20.20;99.90
12384;DHT22;6256;63.808;20.336;2023-07-22T09:35:03;20.40;99.90
12384;DHT22;6256;63.808;20.336;2023-07-22T09:37:37;20.30;99.90
12384;DHT22;6256;63.808;20.336;2023-07-22T09:40:19;20.60;99.90
12384;DHT22;6256;63.808;20.336;2023-07-22T09:43:00;20.70;99.90
12384;DHT22;6256;63.808;20.336;2023-07-22T09:45:31;20.90;99.90
12384;DHT22;6256;63.808;20.336;2023-07-22T09:47:58;21.10;99.90
12384;DHT22;6256;63.808;20.336;2023-07-22T09:50:27;21.30;99.90
12384;DHT22;6256;63.808;20.336;2023-07-22T09:52:54;21.50;99.90
12384;DHT22;6256;63.808;20.336;2023-07-22T09:55:23;21.50;99.90
12384;DHT22;6256;63.808;20.336;2023-07-22T09:58:00;21.30;99.90
12384;DHT22;6256;63.808;20.336;2023-07-22T10:00:31;21.10;99.90
12384;DHT22;6256;63.808;20.336;2023-07-22T10:02:59;20.70;99.90
12384;DHT22;6256;63.808;20.336;2023-07-22T10:05:26;20.60;99.90
12384;DHT22;6256;63.808;20.336;2023-07-22T10:07:54;20.50;99.90
12384;DHT22;6256;63.808;20.336;2023-07-22T10:10:31;20.40;99.90
12384;DHT22;6256;63.808;20.336;2023-07-22T10:12:58;20.50;99.90
12384;DHT22;6256;63.808;20.336;2023-07-22T10:15:26;20.60;99.90
12384;DHT22;6256;63.808;20.336;2023-07-22T10:17:53;20.60;99.90
12384;DHT22;6256;63.808;20.336;2023-07-22T10:20:20;20.60;99.90
12384;DHT22;6256;63.808;20.336;2023-07-22T10:22:47;20.60;99.90
12384;DHT22;6256;63.808;20.336;2023-07-22T10:25:18;20.40;99.90
12384;DHT22;6256;63.808;20.336;2023-07-22T10:27:45;20.40;99.90
12384;DHT22;6256;63.808;20.336;2023-07-22T10:30:15;20.20;99.90
12384;DHT22;6256;63.808;20.336;2023-07-22T10:32:47;20.10;99.90
12384;DHT22;6256;63.808;20.336;2023-07-22T10:38:14;19.70;99.90
12384;DHT22;6256;63.808;20.336;2023-07-22T10:40:50;19.60;99.90
12384;DHT22;6256;63.808;20.336;2023-07-22T10:43:17;19.50;99.90
12384;DHT22;6256;63.808;20.336;2023-07-22T10:45:52;19.40;99.90
12384;DHT22;6256;63.808;20.336;2023-07-22T10:48:19;19.30;99.90
12384;DHT22;6256;63.808;20.336;2023-07-22T10:50:46;19.30;99.90
12384;DHT22;6256;63.808;20.336;2023-07-22T10:53:27;19.40;99.90
12384;DHT22;6256;63.808;20.336;2023-07-22T11:04:10;19.50;99.90
12384;DHT22;6256;63.808;20.336;2023-07-22T11:06:59;19.60;99.90
12384;DHT22;6256;63.808;20.336;2023-07-22T11:11:54;20.00;99.90
12384;DHT22;6256;63.808;20.336;2023-07-22T11:14:23;20.20;99.90
12384;DHT22;6256;63.808;20.336;2023-07-22T11:16:50;20.30;99.90
12384;DHT22;6256;63.808;20.336;2023-07-22T11:19:18;20.30;99.90
12384;DHT22;6256;63.808;20.336;2023-07-22T11:21:45;20.30;99.90
12384;DHT22;6256;63.808;20.336;2023-07-22T11:24:11;20.20;99.90
12384;DHT22;6256;63.808;20.336;2023-07-22T11:26:37;20.00;99.90
12384;DHT22;6256;63.808;20.336;2023-07-22T11:29:04;19.80;99.90
12384;DHT22;6256;63.808;20.336;2023-07-22T11:31:35;19.60;99.90
12384;DHT22;6256;63.808;20.336;2023-07-22T11:34:02;19.40;99.90
12384;DHT22;6256;63.808;20.336;2023-07-22T11:36:29;19.20;99.90
12384;DHT22;6256;63.808;20.336;2023-07-22T11:39:02;19.10;99.90
12384;DHT22;6256;63.808;20.336;2023-07-22T11:41:29;19.10;99.90
12384;DHT22;6256;63.808;20.336;2023-07-22T11:43:57;18.90;99.90
12384;DHT22;6256;63.808;20.336;2023-07-22T11:46:23;18.70;99.90
12384;DHT22;6256;63.808;20.336;2023-07-22T11:48:50;18.60;99.90
12384;DHT22;6256;63.808;20.336;2023-07-22T11:51:21;18.50;99.90
12384;DHT22;6256;63.808;20.336;2023-07-22T11:53:48;18.30;99.90
12384;DHT22;6256;63.808;20.336;2023-07-22T11:56:28;18.30;99.90
12384;DHT22;6256;63.808;20.336;2023-07-22T11:58:55;18.20;99.90
12384;DHT22;6256;63.808;20.336;2023-07-22T12:01:22;18.20;99.90
12384;DHT22;6256;63.808;20.336;2023-07-22T12:03:48;18.10;99.90
12384;DHT22;6256;63.808;20.336;2023-07-22T12:06:15;18.10;99.90
12384;DHT22;6256;63.808;20.336;2023-07-22T12:08:48;18.20;99.90
12384;DHT22;6256;63.808;20.336;2023-07-22T12:11:24;18.20;99.90
12384;DHT22;6256;63.808;20.336;2023-07-22T12:14:08;18.20;99.90
12384;DHT22;6256;63.808;20.336;2023-07-22T12:16:35;18.10;99.90
12384;DHT22;6256;63.808;20.336;2023-07-22T12:19:05;18.10;99.90
12384;DHT22;6256;63.808;20.336;2023-07-22T12:21:31;18.10;99.90
12384;DHT22;6256;63.808;20.336;2023-07-22T12:23:57;18.10;99.90
12384;DHT22;6256;63.808;20.336;2023-07-22T12:26:23;18.10;99.90
12384;DHT22;6256;63.808;20.336;2023-07-22T12:28:49;18.10;99.90
12384;DHT22;6256;63.808;20.336;2023-07-22T12:31:15;18.10;99.90
12384;DHT22;6256;63.808;20.336;2023-07-22T12:33:42;18.20;99.90
12384;DHT22;6256;63.808;20.336;2023-07-22T12:36:07;18.30;99.90
12384;DHT22;6256;63.808;20.336;2023-07-22T12:38:33;18.30;99.90
12384;DHT22;6256;63.808;20.336;2023-07-22T12:41:00;18.40;99.90
12384;DHT22;6256;63.808;20.336;2023-07-22T12:43:26;18.50;99.90
12384;DHT22;6256;63.808;20.336;2023-07-22T12:45:52;18.50;99.90
12384;DHT22;6256;63.808;20.336;2023-07-22T12:48:17;18.60;99.90
12384;DHT22;6256;63.808;20.336;2023-07-22T12:50:44;18.60;99.90
12384;DHT22;6256;63.808;20.336;2023-07-22T12:53:10;18.60;99.90
12384;DHT22;6256;63.808;20.336;2023-07-22T12:55:36;18.60;99.90
12384;DHT22;6256;63.808;20.336;2023-07-22T12:58:01;18.60;99.90
12384;DHT22;6256;63.808;20.336;2023-07-22T13:00:31;18.60;99.90
12384;DHT22;6256;63.808;20.336;2023-07-22T13:02:57;18.60;99.90
12384;DHT22;6256;63.808;20.336;2023-07-22T13:05:23;18.60;99.90
12384;DHT22;6256;63.808;20.336;2023-07-22T13:07:48;18.60;99.90
12384;DHT22;6256;63.808;20.336;2023-07-22T13:10:15;18.50;99.90
12384;DHT22;6256;63.808;20.336;2023-07-22T13:12:43;18.30;99.90
12384;DHT22;6256;63.808;20.336;2023-07-22T13:15:09;18.40;99.90
12384;DHT22;6256;63.808;20.336;2023-07-22T13:17:35;18.40;99.90
12384;DHT22;6256;63.808;20.336;2023-07-22T13:20:02;18.50;99.90
12384;DHT22;6256;63.808;20.336;2023-07-22T13:22:30;18.60;99.90
12384;DHT22;6256;63.808;20.336;2023-07-22T13:24:56;18.60;99.90
12384;DHT22;6256;63.808;20.336;2023-07-22T13:27:22;18.70;99.90
12384;DHT22;6256;63.808;20.336;2023-07-22T13:29:47;18.80;99.90
12384;DHT22;6256;63.808;20.336;2023-07-22T13:32:13;18.70;99.90
12384;DHT22;6256;63.808;20.336;2023-07-22T13:34:39;18.80;99.90
12384;DHT22;6256;63.808;20.336;2023-07-22T13:37:04;18.80;99.90
12384;DHT22;6256;63.808;20.336;2023-07-22T13:39:31;18.90;99.90
12384;DHT22;6256;63.808;20.336;2023-07-22T13:41:57;18.90;99.90
12384;DHT22;6256;63.808;20.336;2023-07-22T13:44:22;18.80;99.90
12384;DHT22;6256;63.808;20.336;2023-07-22T13:46:48;18.80;99.90
12384;DHT22;6256;63.808;20.336;2023-07-22T13:49:14;18.50;99.90
12384;DHT22;6256;63.808;20.336;2023-07-22T13:51:41;18.30;99.90
12384;DHT22;6256;63.808;20.336;2023-07-22T13:54:06;18.10;99.90
12384;DHT22;6256;63.808;20.336;2023-07-22T13:56:32;18.10;99.90
12384;DHT22;6256;63.808;20.336;2023-07-22T13:59:00;18.00;99.90
12384;DHT22;6256;63.808;20.336;2023-07-22T14:01:26;18.00;99.90
12384;DHT22;6256;63.808;20.336;2023-07-22T14:03:53;18.00;99.90
12384;DHT22;6256;63.808;20.336;2023-07-22T14:06:18;18.00;99.90
12384;DHT22;6256;63.808;20.336;2023-07-22T14:08:44;18.00;99.90
12384;DHT22;6256;63.808;20.336;2023-07-22T14:11:10;18.00;99.90
12384;DHT22;6256;63.808;20.336;2023-07-22T14:13:36;18.10;99.90
12384;DHT22;6256;63.808;20.336;2023-07-22T14:16:02;18.10;99.90
12384;DHT22;6256;63.808;20.336;2023-07-22T14:18:29;18.10;99.90
12384;DHT22;6256;63.808;20.336;2023-07-22T14:20:54;18.10;99.90
12384;DHT22;6256;63.808;20.336;2023-07-22T14:23:20;18.10;99.90
12384;DHT22;6256;63.808;20.336;2023-07-22T14:25:46;18.00;99.90
12384;DHT22;6256;63.808;20.336;2023-07-22T14:28:12;18.00;99.90
12384;DHT22;6256;63.808;20.336;2023-07-22T14:30:38;18.00;99.90
12384;DHT22;6256;63.808;20.336;2023-07-22T14:33:03;18.00;99.90
12384;DHT22;6256;63.808;20.336;2023-07-22T14:35:30;18.00;99.90
12384;DHT22;6256;63.808;20.336;2023-07-22T14:37:58;18.00;99.90
12384;DHT22;6256;63.808;20.336;2023-07-22T14:40:25;18.00;99.90
12384;DHT22;6256;63.808;20.336;2023-07-22T14:42:51;18.00;99.90
12384;DHT22;6256;63.808;20.336;2023-07-22T14:45:17;18.00;99.90
12384;DHT22;6256;63.808;20.336;2023-07-22T14:47:42;18.00;99.90
12384;DHT22;6256;63.808;20.336;2023-07-22T14:50:09;18.10;99.90
12384;DHT22;6256;63.808;20.336;2023-07-22T14:52:35;18.20;99.90
12384;DHT22;6256;63.808;20.336;2023-07-22T14:55:01;18.40;99.90
12384;DHT22;6256;63.808;20.336;2023-07-22T14:57:26;18.60;99.90
12384;DHT22;6256;63.808;20.336;2023-07-22T14:59:55;18.80;99.90
12384;DHT22;6256;63.808;20.336;2023-07-22T15:02:21;18.90;99.90
12384;DHT22;6256;63.808;20.336;2023-07-22T15:04:49;19.00;99.90
12384;DHT22;6256;63.808;20.336;2023-07-22T15:07:15;19.20;99.90
12384;DHT22;6256;63.808;20.336;2023-07-22T15:09:41;19.30;99.90
12384;DHT22;6256;63.808;20.336;2023-07-22T15:12:06;19.30;99.90
12384;DHT22;6256;63.808;20.336;2023-07-22T15:14:33;19.40;99.90
12384;DHT22;6256;63.808;20.336;2023-07-22T15:16:59;19.50;99.90
12384;DHT22;6256;63.808;20.336;2023-07-22T15:19:25;19.50;99.90
12384;DHT22;6256;63.808;20.336;2023-07-22T15:21:51;19.30;99.90
12384;DHT22;6256;63.808;20.336;2023-07-22T15:24:18;19.00;99.90
12384;DHT22;6256;63.808;20.336;2023-07-22T15:26:44;18.90;99.90
12384;DHT22;6256;63.808;20.336;2023-07-22T15:29:10;18.70;99.90
12384;DHT22;6256;63.808;20.336;2023-07-22T15:31:35;18.60;99.90
12384;DHT22;6256;63.808;20.336;2023-07-22T15:34:01;18.50;99.90
12384;DHT22;6256;63.808;20.336;2023-07-22T15:36:27;18.30;99.90
12384;DHT22;6256;63.808;20.336;2023-07-22T15:38:53;18.20;99.90
12384;DHT22;6256;63.808;20.336;2023-07-22T15:41:19;18.10;99.90